sensor_id;sensor_type;location;lat;lon;timestamp;temperature;humidity
61912;DHT22;49973;52.084;5.412;2022-12-01T00:01:36;5.90;99.90
61912;DHT22;49973;52.084;5.412;2022-12-01T00:04:04;5.80;99.90
61912;DHT22;49973;52.084;5.412;2022-12-01T00:06:33;5.90;99.90
61912;DHT22;49973;52.084;5.412;2022-12-01T00:09:03;5.80;99.90
61912;DHT22;49973;52.084;5.412;2022-12-01T00:11:49;5.90;99.90
61912;DHT22;49973;52.084;5.412;2022-12-01T00:14:17;5.90;99.90
61912;DHT22;49973;52.084;5.412;2022-12-01T00:16:46;5.90;99.90
61912;DHT22;49973;52.084;5.412;2022-12-01T00:19:14;5.90;99.90
61912;DHT22;49973;52.084;5.412;2022-12-01T00:21:45;6.00;99.90
61912;DHT22;49973;52.084;5.412;2022-12-01T00:24:15;5.90;99.90
61912;DHT22;49973;52.084;5.412;2022-12-01T00:26:43;6.00;99.90
61912;DHT22;49973;52.084;5.412;2022-12-01T00:29:11;6.00;99.90
61912;DHT22;49973;52.084;5.412;2022-12-01T00:31:40;6.00;99.90
61912;DHT22;49973;52.084;5.412;2022-12-01T00:34:17;6.00;99.90
61912;DHT22;49973;52.084;5.412;2022-12-01T00:36:48;6.00;99.90
61912;DHT22;49973;52.084;5.412;2022-12-01T00:39:18;6.00;99.90
61912;DHT22;49973;52.084;5.412;2022-12-01T00:41:46;6.00;99.90
61912;DHT22;49973;52.084;5.412;2022-12-01T00:44:15;5.90;99.90
61912;DHT22;49973;52.084;5.412;2022-12-01T00:46:43;5.90;99.90
61912;DHT22;49973;52.084;5.412;2022-12-01T00:49:12;6.00;99.90
61912;DHT22;49973;52.084;5.412;2022-12-01T00:51:41;5.90;99.90
61912;DHT22;49973;52.084;5.412;2022-12-01T00:54:09;5.90;99.90
61912;DHT22;49973;52.084;5.412;2022-12-01T00:56:39;5.90;99.90
61912;DHT22;49973;52.084;5.412;2022-12-01T00:59:08;6.00;99.90
61912;DHT22;49973;52.084;5.412;2022-12-01T01:01:36;5.90;99.90
61912;DHT22;49973;52.084;5.412;2022-12-01T01:04:05;5.90;99.90
61912;DHT22;49973;52.084;5.412;2022-12-01T01:06:33;5.90;99.90
61912;DHT22;49973;52.084;5.412;2022-12-01T01:09:02;5.90;99.90
61912;DHT22;49973;52.084;5.412;2022-12-01T01:11:30;5.90;99.90
61912;DHT22;49973;52.084;5.412;2022-12-01T01:14:00;5.90;99.90
61912;DHT22;49973;52.084;5.412;2022-12-01T01:16:29;5.90;99.90
61912;DHT22;49973;52.084;5.412;2022-12-01T01:18:57;5.90;99.90
61912;DHT22;49973;52.084;5.412;2022-12-01T01:21:26;5.90;99.90
61912;DHT22;49973;52.084;5.412;2022-12-01T01:23:55;5.90;99.90
61912;DHT22;49973;52.084;5.412;2022-12-01T01:26:25;5.90;99.90
61912;DHT22;49973;52.084;5.412;2022-12-01T01:28:55;5.90;99.90
61912;DHT22;49973;52.084;5.412;2022-12-01T01:31:26;6.00;99.90
61912;DHT22;49973;52.084;5.412;2022-12-01T01:33:55;6.00;99.90
61912;DHT22;49973;52.084;5.412;2022-12-01T01:36:24;6.00;99.90
61912;DHT22;49973;52.084;5.412;2022-12-01T01:38:52;6.00;99.90
61912;DHT22;49973;52.084;5.412;2022-12-01T01:41:22;6.00;99.90
61912;DHT22;49973;52.084;5.412;2022-12-01T01:43:52;6.00;99.90
61912;DHT22;49973;52.084;5.412;2022-12-01T01:46:26;6.00;99.90
61912;DHT22;49973;52.084;5.412;2022-12-01T01:48:58;6.00;99.90
61912;DHT22;49973;52.084;5.412;2022-12-01T01:51:29;6.00;99.90
61912;DHT22;49973;52.084;5.412;2022-12-01T01:54:03;6.00;99.90
61912;DHT22;49973;52.084;5.412;2022-12-01T01:56:34;6.00;99.90
61912;DHT22;49973;52.084;5.412;2022-12-01T01:59:03;6.10;99.90
61912;DHT22;49973;52.084;5.412;2022-12-01T02:01:33;6.10;99.90
61912;DHT22;49973;52.084;5.412;2022-12-01T02:04:02;6.10;99.90
61912;DHT22;49973;52.084;5.412;2022-12-01T02:06:30;6.10;99.90
61912;DHT22;49973;52.084;5.412;2022-12-01T02:08:59;6.10;99.90
61912;DHT22;49973;52.084;5.412;2022-12-01T02:11:39;6.10;99.90
61912;DHT22;49973;52.084;5.412;2022-12-01T02:14:38;6.10;99.90
61912;DHT22;49973;52.084;5.412;2022-12-01T02:17:20;6.10;99.90
61912;DHT22;49973;52.084;5.412;2022-12-01T02:23:07;6.10;99.90
61912;DHT22;49973;52.084;5.412;2022-12-01T02:25:47;6.10;99.90
61912;DHT22;49973;52.084;5.412;2022-12-01T02:28:34;6.20;99.90
61912;DHT22;49973;52.084;5.412;2022-12-01T02:31:14;6.20;99.90
61912;DHT22;49973;52.084;5.412;2022-12-01T02:33:51;6.10;99.90
61912;DHT22;49973;52.084;5.412;2022-12-01T02:36:25;6.20;99.90
61912;DHT22;49973;52.084;5.412;2022-12-01T02:39:01;6.20;99.90
61912;DHT22;49973;52.084;5.412;2022-12-01T02:41:38;6.20;99.90
61912;DHT22;49973;52.084;5.412;2022-12-01T02:44:11;6.20;99.90
61912;DHT22;49973;52.084;5.412;2022-12-01T02:46:48;6.20;99.90
61912;DHT22;49973;52.084;5.412;2022-12-01T02:49:20;6.20;99.90
61912;DHT22;49973;52.084;5.412;2022-12-01T02:51:50;6.20;99.90
61912;DHT22;49973;52.084;5.412;2022-12-01T02:54:21;6.20;99.90
61912;DHT22;49973;52.084;5.412;2022-12-01T02:56:51;6.20;99.90
61912;DHT22;49973;52.084;5.412;2022-12-01T02:59:20;6.20;99.90
61912;DHT22;49973;52.084;5.412;2022-12-01T03:01:59;6.20;99.90
61912;DHT22;49973;52.084;5.412;2022-12-01T03:04:51;6.10;99.90
61912;DHT22;49973;52.084;5.412;2022-12-01T03:07:41;6.10;99.90
61912;DHT22;49973;52.084;5.412;2022-12-01T03:10:16;6.10;99.90
61912;DHT22;49973;52.084;5.412;2022-12-01T03:12:57;6.10;99.90
61912;DHT22;49973;52.084;5.412;2022-12-01T03:15:32;6.10;99.90
61912;DHT22;49973;52.084;5.412;2022-12-01T03:18:08;6.10;99.90
61912;DHT22;49973;52.084;5.412;2022-12-01T03:20:47;6.10;99.90
61912;DHT22;49973;52.084;5.412;2022-12-01T03:23:23;6.10;99.90
61912;DHT22;49973;52.084;5.412;2022-12-01T03:25:55;6.10;99.90
61912;DHT22;49973;52.084;5.412;2022-12-01T03:28:28;6.10;99.90
61912;DHT22;49973;52.084;5.412;2022-12-01T03:31:01;6.10;99.90
61912;DHT22;49973;52.084;5.412;2022-12-01T03:33:35;6.10;99.90
61912;DHT22;49973;52.084;5.412;2022-12-01T03:36:09;6.10;99.90
61912;DHT22;49973;52.084;5.412;2022-12-01T03:38:39;6.10;99.90
61912;DHT22;49973;52.084;5.412;2022-12-01T03:41:15;6.10;99.90
61912;DHT22;49973;52.084;5.412;2022-12-01T03:43:48;6.10;99.90
61912;DHT22;49973;52.084;5.412;2022-12-01T03:46:22;6.10;99.90
61912;DHT22;49973;52.084;5.412;2022-12-01T03:48:53;6.10;99.90
61912;DHT22;49973;52.084;5.412;2022-12-01T03:51:29;6.10;99.90
61912;DHT22;49973;52.084;5.412;2022-12-01T03:54:03;6.10;99.90
61912;DHT22;49973;52.084;5.412;2022-12-01T03:56:36;6.10;99.90
61912;DHT22;49973;52.084;5.412;2022-12-01T03:59:08;6.10;99.90
61912;DHT22;49973;52.084;5.412;2022-12-01T04:01:37;6.10;99.90
61912;DHT22;49973;52.084;5.412;2022-12-01T04:04:09;6.10;99.90
61912;DHT22;49973;52.084;5.412;2022-12-01T04:06:39;6.10;99.90
61912;DHT22;49973;52.084;5.412;2022-12-01T04:09:09;6.10;99.90
61912;DHT22;49973;52.084;5.412;2022-12-01T04:11:37;6.10;99.90
61912;DHT22;49973;52.084;5.412;2022-12-01T04:14:23;6.10;99.90
61912;DHT22;49973;52.084;5.412;2022-12-01T04:16:51;6.10;99.90
61912;DHT22;49973;52.084;5.412;2022-12-01T04:19:21;6.10;99.90
61912;DHT22;49973;52.084;5.412;2022-12-01T04:21:50;6.10;99.90
61912;DHT22;49973;52.084;5.412;2022-12-01T04:24:18;6.00;99.90
61912;DHT22;49973;52.084;5.412;2022-12-01T04:26:47;6.10;99.90
61912;DHT22;49973;52.084;5.412;2022-12-01T04:29:15;6.00;99.90
61912;DHT22;49973;52.084;5.412;2022-12-01T04:31:43;6.00;99.90
61912;DHT22;49973;52.084;5.412;2022-12-01T04:34:12;6.10;99.90
61912;DHT22;49973;52.084;5.412;2022-12-01T04:36:42;6.00;99.90
61912;DHT22;49973;52.084;5.412;2022-12-01T04:39:11;6.00;99.90
61912;DHT22;49973;52.084;5.412;2022-12-01T04:41:39;6.00;99.90
61912;DHT22;49973;52.084;5.412;2022-12-01T04:44:08;6.00;99.90
61912;DHT22;49973;52.084;5.412;2022-12-01T04:46:37;6.00;99.90
61912;DHT22;49973;52.084;5.412;2022-12-01T04:49:06;6.00;99.90
61912;DHT22;49973;52.084;5.412;2022-12-01T04:51:35;6.00;99.90
61912;DHT22;49973;52.084;5.412;2022-12-01T04:54:04;6.00;99.90
61912;DHT22;49973;52.084;5.412;2022-12-01T04:56:33;6.00;99.90
61912;DHT22;49973;52.084;5.412;2022-12-01T04:59:01;6.00;99.90
61912;DHT22;49973;52.084;5.412;2022-12-01T05:01:30;6.00;99.90
61912;DHT22;49973;52.084;5.412;2022-12-01T05:03:58;5.90;99.90
61912;DHT22;49973;52.084;5.412;2022-12-01T05:06:27;5.90;99.90
61912;DHT22;49973;52.084;5.412;2022-12-01T05:08:58;5.90;99.90
61912;DHT22;49973;52.084;5.412;2022-12-01T05:11:29;5.90;99.90
61912;DHT22;49973;52.084;5.412;2022-12-01T05:13:58;5.90;99.90
61912;DHT22;49973;52.084;5.412;2022-12-01T05:16:28;5.90;99.90
61912;DHT22;49973;52.084;5.412;2022-12-01T05:19:00;5.90;99.90
61912;DHT22;49973;52.084;5.412;2022-12-01T05:21:47;5.90;99.90
61912;DHT22;49973;52.084;5.412;2022-12-01T05:24:17;5.90;99.90
61912;DHT22;49973;52.084;5.412;2022-12-01T05:26:47;5.90;99.90
61912;DHT22;49973;52.084;5.412;2022-12-01T05:29:16;5.90;99.90
61912;DHT22;49973;52.084;5.412;2022-12-01T05:31:44;5.90;99.90
61912;DHT22;49973;52.084;5.412;2022-12-01T05:34:13;5.80;99.90
61912;DHT22;49973;52.084;5.412;2022-12-01T05:36:42;5.80;99.90
61912;DHT22;49973;52.084;5.412;2022-12-01T05:39:10;5.80;99.90
61912;DHT22;49973;52.084;5.412;2022-12-01T05:41:39;5.70;99.90
61912;DHT22;49973;52.084;5.412;2022-12-01T05:44:09;5.70;99.90
61912;DHT22;49973;52.084;5.412;2022-12-01T05:46:37;5.70;99.90
61912;DHT22;49973;52.084;5.412;2022-12-01T05:49:05;5.60;99.90
61912;DHT22;49973;52.084;5.412;2022-12-01T05:51:34;5.60;99.90
61912;DHT22;49973;52.084;5.412;2022-12-01T05:54:03;5.60;99.90
61912;DHT22;49973;52.084;5.412;2022-12-01T05:56:31;5.60;99.90
61912;DHT22;49973;52.084;5.412;2022-12-01T05:59:00;5.50;99.90
61912;DHT22;49973;52.084;5.412;2022-12-01T06:01:30;5.60;99.90
61912;DHT22;49973;52.084;5.412;2022-12-01T06:03:58;5.60;99.90
61912;DHT22;49973;52.084;5.412;2022-12-01T06:06:27;5.60;99.90
61912;DHT22;49973;52.084;5.412;2022-12-01T06:08:55;5.60;99.90
61912;DHT22;49973;52.084;5.412;2022-12-01T06:11:23;5.70;99.90
61912;DHT22;49973;52.084;5.412;2022-12-01T06:13:52;5.70;99.90
61912;DHT22;49973;52.084;5.412;2022-12-01T06:16:20;5.70;99.90
61912;DHT22;49973;52.084;5.412;2022-12-01T06:18:50;5.60;99.90
61912;DHT22;49973;52.084;5.412;2022-12-01T06:21:19;5.50;99.90
61912;DHT22;49973;52.084;5.412;2022-12-01T06:23:47;5.50;99.90
61912;DHT22;49973;52.084;5.412;2022-12-01T06:26:16;5.40;99.90
61912;DHT22;49973;52.084;5.412;2022-12-01T06:28:45;5.30;99.90
61912;DHT22;49973;52.084;5.412;2022-12-01T06:31:13;5.20;99.90
61912;DHT22;49973;52.084;5.412;2022-12-01T06:33:41;5.10;99.90
61912;DHT22;49973;52.084;5.412;2022-12-01T06:36:11;5.00;99.90
61912;DHT22;49973;52.084;5.412;2022-12-01T06:38:40;4.90;99.90
61912;DHT22;49973;52.084;5.412;2022-12-01T06:41:08;4.80;99.90
61912;DHT22;49973;52.084;5.412;2022-12-01T06:43:37;4.70;99.90
61912;DHT22;49973;52.084;5.412;2022-12-01T06:46:05;4.60;99.90
61912;DHT22;49973;52.084;5.412;2022-12-01T06:48:34;4.60;99.90
61912;DHT22;49973;52.084;5.412;2022-12-01T06:51:02;4.70;99.90
61912;DHT22;49973;52.084;5.412;2022-12-01T06:53:32;4.50;99.90
61912;DHT22;49973;52.084;5.412;2022-12-01T06:56:02;4.40;99.90
61912;DHT22;49973;52.084;5.412;2022-12-01T06:58:31;4.40;99.90
61912;DHT22;49973;52.084;5.412;2022-12-01T07:01:07;4.40;99.90
61912;DHT22;49973;52.084;5.412;2022-12-01T07:03:35;4.30;99.90
61912;DHT22;49973;52.084;5.412;2022-12-01T07:06:04;4.30;99.90
61912;DHT22;49973;52.084;5.412;2022-12-01T07:08:34;4.20;99.90
61912;DHT22;49973;52.084;5.412;2022-12-01T07:11:04;4.20;99.90
61912;DHT22;49973;52.084;5.412;2022-12-01T07:13:34;4.10;99.90
61912;DHT22;49973;52.084;5.412;2022-12-01T07:16:03;4.10;99.90
61912;DHT22;49973;52.084;5.412;2022-12-01T07:18:33;4.10;99.90
61912;DHT22;49973;52.084;5.412;2022-12-01T07:21:03;4.00;99.90
61912;DHT22;49973;52.084;5.412;2022-12-01T07:23:33;4.00;99.90
61912;DHT22;49973;52.084;5.412;2022-12-01T07:26:04;4.00;99.90
61912;DHT22;49973;52.084;5.412;2022-12-01T07:28:33;4.00;99.90
61912;DHT22;49973;52.084;5.412;2022-12-01T07:31:02;3.90;99.90
61912;DHT22;49973;52.084;5.412;2022-12-01T07:33:31;3.90;99.90
61912;DHT22;49973;52.084;5.412;2022-12-01T07:36:00;4.00;99.90
61912;DHT22;49973;52.084;5.412;2022-12-01T07:38:29;3.80;99.90
61912;DHT22;49973;52.084;5.412;2022-12-01T07:41:02;3.80;99.90
61912;DHT22;49973;52.084;5.412;2022-12-01T07:43:31;3.70;99.90
61912;DHT22;49973;52.084;5.412;2022-12-01T07:46:07;3.80;99.90
61912;DHT22;49973;52.084;5.412;2022-12-01T07:48:37;3.80;99.90
61912;DHT22;49973;52.084;5.412;2022-12-01T07:51:07;3.80;99.90
61912;DHT22;49973;52.084;5.412;2022-12-01T07:53:36;3.80;99.90
61912;DHT22;49973;52.084;5.412;2022-12-01T07:56:07;3.80;99.90
61912;DHT22;49973;52.084;5.412;2022-12-01T07:58:36;3.80;99.90
61912;DHT22;49973;52.084;5.412;2022-12-01T08:01:05;3.90;99.90
61912;DHT22;49973;52.084;5.412;2022-12-01T08:03:34;3.90;99.90
61912;DHT22;49973;52.084;5.412;2022-12-01T08:06:04;3.90;99.90
61912;DHT22;49973;52.084;5.412;2022-12-01T08:08:34;4.00;99.90
61912;DHT22;49973;52.084;5.412;2022-12-01T08:11:04;4.00;99.90
61912;DHT22;49973;52.084;5.412;2022-12-01T08:13:35;4.10;99.90
61912;DHT22;49973;52.084;5.412;2022-12-01T08:16:03;4.20;99.90
61912;DHT22;49973;52.084;5.412;2022-12-01T08:18:33;4.20;99.90
61912;DHT22;49973;52.084;5.412;2022-12-01T08:21:01;4.30;99.90
61912;DHT22;49973;52.084;5.412;2022-12-01T08:23:30;4.40;99.90
61912;DHT22;49973;52.084;5.412;2022-12-01T08:25:59;4.60;99.90
61912;DHT22;49973;52.084;5.412;2022-12-01T08:28:29;4.60;99.90
61912;DHT22;49973;52.084;5.412;2022-12-01T08:31:06;4.70;99.90
61912;DHT22;49973;52.084;5.412;2022-12-01T08:33:34;4.70;99.90
61912;DHT22;49973;52.084;5.412;2022-12-01T08:36:03;4.80;99.90
61912;DHT22;49973;52.084;5.412;2022-12-01T08:38:32;4.90;99.90
61912;DHT22;49973;52.084;5.412;2022-12-01T08:41:02;5.00;99.90
61912;DHT22;49973;52.084;5.412;2022-12-01T08:43:31;5.10;99.90
61912;DHT22;49973;52.084;5.412;2022-12-01T08:46:21;5.10;99.90
61912;DHT22;49973;52.084;5.412;2022-12-01T08:48:50;5.20;99.90
61912;DHT22;49973;52.084;5.412;2022-12-01T08:51:21;5.30;99.90
61912;DHT22;49973;52.084;5.412;2022-12-01T08:53:51;5.30;99.90
61912;DHT22;49973;52.084;5.412;2022-12-01T08:56:21;5.40;99.90
61912;DHT22;49973;52.084;5.412;2022-12-01T08:58:50;5.50;99.90
61912;DHT22;49973;52.084;5.412;2022-12-01T09:01:21;5.50;99.90
61912;DHT22;49973;52.084;5.412;2022-12-01T09:03:50;5.60;99.90
61912;DHT22;49973;52.084;5.412;2022-12-01T09:06:34;5.80;99.90
61912;DHT22;49973;52.084;5.412;2022-12-01T09:09:05;5.80;99.90
61912;DHT22;49973;52.084;5.412;2022-12-01T09:11:33;5.80;99.90
61912;DHT22;49973;52.084;5.412;2022-12-01T09:14:02;5.90;99.90
61912;DHT22;49973;52.084;5.412;2022-12-01T09:16:32;6.00;99.90
61912;DHT22;49973;52.084;5.412;2022-12-01T09:19:00;6.10;99.90
61912;DHT22;49973;52.084;5.412;2022-12-01T09:21:32;6.10;99.90
61912;DHT22;49973;52.084;5.412;2022-12-01T09:24:00;6.20;99.90
61912;DHT22;49973;52.084;5.412;2022-12-01T09:26:29;6.20;99.90
61912;DHT22;49973;52.084;5.412;2022-12-01T09:28:59;6.30;99.90
61912;DHT22;49973;52.084;5.412;2022-12-01T09:31:28;6.30;99.90
61912;DHT22;49973;52.084;5.412;2022-12-01T09:34:00;6.30;99.90
61912;DHT22;49973;52.084;5.412;2022-12-01T09:36:30;6.40;99.90
61912;DHT22;49973;52.084;5.412;2022-12-01T09:38:59;6.50;99.90
61912;DHT22;49973;52.084;5.412;2022-12-01T09:41:30;6.50;99.90
61912;DHT22;49973;52.084;5.412;2022-12-01T09:44:10;6.50;99.90
61912;DHT22;49973;52.084;5.412;2022-12-01T09:46:45;6.40;99.90
61912;DHT22;49973;52.084;5.412;2022-12-01T09:49:19;6.40;99.90
61912;DHT22;49973;52.084;5.412;2022-12-01T09:51:51;6.40;99.90
61912;DHT22;49973;52.084;5.412;2022-12-01T09:54:20;6.20;99.90
61912;DHT22;49973;52.084;5.412;2022-12-01T09:56:51;6.30;99.90
61912;DHT22;49973;52.084;5.412;2022-12-01T09:59:24;6.40;99.90
61912;DHT22;49973;52.084;5.412;2022-12-01T10:01:55;6.30;99.90
61912;DHT22;49973;52.084;5.412;2022-12-01T10:04:32;6.30;99.90
61912;DHT22;49973;52.084;5.412;2022-12-01T10:07:03;6.30;99.90
61912;DHT22;49973;52.084;5.412;2022-12-01T10:09:37;6.30;99.90
61912;DHT22;49973;52.084;5.412;2022-12-01T10:12:12;6.40;99.90
61912;DHT22;49973;52.084;5.412;2022-12-01T10:14:43;6.40;99.90
61912;DHT22;49973;52.084;5.412;2022-12-01T10:17:20;6.30;99.90
61912;DHT22;49973;52.084;5.412;2022-12-01T10:19:55;6.40;99.90
61912;DHT22;49973;52.084;5.412;2022-12-01T10:22:48;6.40;99.90
61912;DHT22;49973;52.084;5.412;2022-12-01T10:25:21;6.40;99.90
61912;DHT22;49973;52.084;5.412;2022-12-01T10:28:03;6.40;99.90
61912;DHT22;49973;52.084;5.412;2022-12-01T10:30:37;6.50;99.90
61912;DHT22;49973;52.084;5.412;2022-12-01T10:33:15;6.50;99.90
61912;DHT22;49973;52.084;5.412;2022-12-01T10:35:47;6.60;99.90
61912;DHT22;49973;52.084;5.412;2022-12-01T10:38:24;6.70;99.90
61912;DHT22;49973;52.084;5.412;2022-12-01T10:40:53;6.70;99.90
61912;DHT22;49973;52.084;5.412;2022-12-01T10:43:28;6.80;99.90
61912;DHT22;49973;52.084;5.412;2022-12-01T10:46:00;6.80;99.90
61912;DHT22;49973;52.084;5.412;2022-12-01T10:48:51;6.90;99.90
61912;DHT22;49973;52.084;5.412;2022-12-01T10:51:21;7.00;99.90
61912;DHT22;49973;52.084;5.412;2022-12-01T10:53:57;7.10;99.90
61912;DHT22;49973;52.084;5.412;2022-12-01T10:56:26;7.10;99.90
61912;DHT22;49973;52.084;5.412;2022-12-01T10:58:57;7.20;99.90
61912;DHT22;49973;52.084;5.412;2022-12-01T11:01:28;7.30;99.90
61912;DHT22;49973;52.084;5.412;2022-12-01T11:04:04;7.30;99.90
61912;DHT22;49973;52.084;5.412;2022-12-01T11:06:35;7.30;99.90
61912;DHT22;49973;52.084;5.412;2022-12-01T11:09:06;7.30;99.90
61912;DHT22;49973;52.084;5.412;2022-12-01T11:11:55;7.40;99.90
61912;DHT22;49973;52.084;5.412;2022-12-01T11:14:30;7.40;99.90
61912;DHT22;49973;52.084;5.412;2022-12-01T11:17:15;7.40;99.90
61912;DHT22;49973;52.084;5.412;2022-12-01T11:19:43;7.40;99.90
61912;DHT22;49973;52.084;5.412;2022-12-01T11:22:20;7.30;99.90
61912;DHT22;49973;52.084;5.412;2022-12-01T11:24:58;7.30;99.90
61912;DHT22;49973;52.084;5.412;2022-12-01T11:27:29;7.20;99.90
61912;DHT22;49973;52.084;5.412;2022-12-01T11:30:02;7.10;99.90
61912;DHT22;49973;52.084;5.412;2022-12-01T11:32:36;7.10;99.90
61912;DHT22;49973;52.084;5.412;2022-12-01T11:35:14;7.00;99.90
61912;DHT22;49973;52.084;5.412;2022-12-01T11:37:47;7.00;99.90
61912;DHT22;49973;52.084;5.412;2022-12-01T11:40:46;6.90;99.90
61912;DHT22;49973;52.084;5.412;2022-12-01T11:43:22;6.90;99.90
61912;DHT22;49973;52.084;5.412;2022-12-01T11:45:51;6.80;99.90
61912;DHT22;49973;52.084;5.412;2022-12-01T11:48:25;6.80;99.90
61912;DHT22;49973;52.084;5.412;2022-12-01T11:51:01;6.80;99.90
61912;DHT22;49973;52.084;5.412;2022-12-01T11:53:33;6.80;99.90
61912;DHT22;49973;52.084;5.412;2022-12-01T11:56:20;6.80;99.90
61912;DHT22;49973;52.084;5.412;2022-12-01T11:58:53;6.80;99.90
61912;DHT22;49973;52.084;5.412;2022-12-01T12:01:33;6.80;99.90
61912;DHT22;49973;52.084;5.412;2022-12-01T12:04:19;6.80;99.90
61912;DHT22;49973;52.084;5.412;2022-12-01T12:06:54;6.80;99.90
61912;DHT22;49973;52.084;5.412;2022-12-01T12:09:40;6.90;99.90
61912;DHT22;49973;52.084;5.412;2022-12-01T12:12:22;6.90;99.90
61912;DHT22;49973;52.084;5.412;2022-12-01T12:15:00;6.90;99.90
61912;DHT22;49973;52.084;5.412;2022-12-01T12:17:48;6.90;99.90
61912;DHT22;49973;52.084;5.412;2022-12-01T12:20:43;6.90;99.90
61912;DHT22;49973;52.084;5.412;2022-12-01T12:23:25;7.00;99.90
61912;DHT22;49973;52.084;5.412;2022-12-01T12:26:03;7.00;99.90
61912;DHT22;49973;52.084;5.412;2022-12-01T12:28:48;7.00;99.90
61912;DHT22;49973;52.084;5.412;2022-12-01T12:31:26;7.00;99.90
61912;DHT22;49973;52.084;5.412;2022-12-01T12:34:06;7.00;99.90
61912;DHT22;49973;52.084;5.412;2022-12-01T12:36:45;7.00;99.90
61912;DHT22;49973;52.084;5.412;2022-12-01T12:39:25;7.00;99.90
61912;DHT22;49973;52.084;5.412;2022-12-01T12:41:57;7.00;99.90
61912;DHT22;49973;52.084;5.412;2022-12-01T12:44:49;6.90;99.90
61912;DHT22;49973;52.084;5.412;2022-12-01T12:47:29;7.00;99.90
61912;DHT22;49973;52.084;5.412;2022-12-01T12:50:14;7.00;99.90
61912;DHT22;49973;52.084;5.412;2022-12-01T12:52:46;7.10;99.90
61912;DHT22;49973;52.084;5.412;2022-12-01T12:55:20;7.10;99.90
61912;DHT22;49973;52.084;5.412;2022-12-01T12:57:55;7.20;99.90
61912;DHT22;49973;52.084;5.412;2022-12-01T13:00:26;7.30;99.90
61912;DHT22;49973;52.084;5.412;2022-12-01T13:02:58;7.40;99.90
61912;DHT22;49973;52.084;5.412;2022-12-01T13:05:39;7.50;99.90
61912;DHT22;49973;52.084;5.412;2022-12-01T13:08:11;7.50;99.90
61912;DHT22;49973;52.084;5.412;2022-12-01T13:10:45;7.30;99.90
61912;DHT22;49973;52.084;5.412;2022-12-01T13:13:23;7.40;99.90
61912;DHT22;49973;52.084;5.412;2022-12-01T13:15:54;7.30;99.90
61912;DHT22;49973;52.084;5.412;2022-12-01T13:18:30;7.40;99.90
61912;DHT22;49973;52.084;5.412;2022-12-01T13:21:02;7.20;99.90
61912;DHT22;49973;52.084;5.412;2022-12-01T13:23:31;7.20;99.90
61912;DHT22;49973;52.084;5.412;2022-12-01T13:26:04;7.10;99.90
61912;DHT22;49973;52.084;5.412;2022-12-01T13:28:39;7.10;99.90
61912;DHT22;49973;52.084;5.412;2022-12-01T13:31:09;7.10;99.90
61912;DHT22;49973;52.084;5.412;2022-12-01T13:33:43;7.20;99.90
61912;DHT22;49973;52.084;5.412;2022-12-01T13:36:12;7.30;99.90
61912;DHT22;49973;52.084;5.412;2022-12-01T13:39:05;7.40;99.90
61912;DHT22;49973;52.084;5.412;2022-12-01T13:41:35;7.40;99.90
61912;DHT22;49973;52.084;5.412;2022-12-01T13:44:20;7.40;99.90
61912;DHT22;49973;52.084;5.412;2022-12-01T13:46:52;7.40;99.90
61912;DHT22;49973;52.084;5.412;2022-12-01T13:49:36;7.30;99.90
61912;DHT22;49973;52.084;5.412;2022-12-01T13:52:33;7.30;99.90
61912;DHT22;49973;52.084;5.412;2022-12-01T13:55:27;7.30;99.90
61912;DHT22;49973;52.084;5.412;2022-12-01T13:58:25;7.20;99.90
61912;DHT22;49973;52.084;5.412;2022-12-01T14:04:29;7.10;99.90
61912;DHT22;49973;52.084;5.412;2022-12-01T14:07:35;7.00;99.90
61912;DHT22;49973;52.084;5.412;2022-12-01T14:10:27;7.00;99.90
61912;DHT22;49973;52.084;5.412;2022-12-01T14:13:00;6.90;99.90
61912;DHT22;49973;52.084;5.412;2022-12-01T14:15:32;6.90;99.90
61912;DHT22;49973;52.084;5.412;2022-12-01T14:18:05;6.80;99.90
61912;DHT22;49973;52.084;5.412;2022-12-01T14:20:43;6.80;99.90
61912;DHT22;49973;52.084;5.412;2022-12-01T14:23:16;6.80;99.90
61912;DHT22;49973;52.084;5.412;2022-12-01T14:25:57;6.80;99.90
61912;DHT22;49973;52.084;5.412;2022-12-01T14:34:58;6.60;99.90
61912;DHT22;49973;52.084;5.412;2022-12-01T14:37:46;6.60;99.90
61912;DHT22;49973;52.084;5.412;2022-12-01T14:40:24;6.50;99.90
61912;DHT22;49973;52.084;5.412;2022-12-01T14:42:55;6.50;99.90
61912;DHT22;49973;52.084;5.412;2022-12-01T14:45:49;6.50;99.90
61912;DHT22;49973;52.084;5.412;2022-12-01T14:48:24;6.40;99.90
61912;DHT22;49973;52.084;5.412;2022-12-01T14:51:11;6.40;99.90
61912;DHT22;49973;52.084;5.412;2022-12-01T14:53:43;6.40;99.90
61912;DHT22;49973;52.084;5.412;2022-12-01T14:56:16;6.30;99.90
61912;DHT22;49973;52.084;5.412;2022-12-01T14:58:56;6.30;99.90
61912;DHT22;49973;52.084;5.412;2022-12-01T15:01:30;6.20;99.90
61912;DHT22;49973;52.084;5.412;2022-12-01T15:04:01;6.20;99.90
61912;DHT22;49973;52.084;5.412;2022-12-01T15:06:33;6.20;99.90
61912;DHT22;49973;52.084;5.412;2022-12-01T15:09:05;6.10;99.90
61912;DHT22;49973;52.084;5.412;2022-12-01T15:11:56;6.10;99.90
61912;DHT22;49973;52.084;5.412;2022-12-01T15:14:30;6.00;99.90
61912;DHT22;49973;52.084;5.412;2022-12-01T15:16:59;6.00;99.90
61912;DHT22;49973;52.084;5.412;2022-12-01T15:19:34;5.90;99.90
61912;DHT22;49973;52.084;5.412;2022-12-01T15:22:10;5.80;99.90
61912;DHT22;49973;52.084;5.412;2022-12-01T15:24:40;5.80;99.90
61912;DHT22;49973;52.084;5.412;2022-12-01T15:27:26;5.70;99.90
61912;DHT22;49973;52.084;5.412;2022-12-01T15:29:55;5.70;99.90
61912;DHT22;49973;52.084;5.412;2022-12-01T15:32:24;5.60;99.90
61912;DHT22;49973;52.084;5.412;2022-12-01T15:34:54;5.60;99.90
61912;DHT22;49973;52.084;5.412;2022-12-01T15:37:26;5.50;99.90
61912;DHT22;49973;52.084;5.412;2022-12-01T15:39:58;5.50;99.90
61912;DHT22;49973;52.084;5.412;2022-12-01T15:43:00;5.40;99.90
61912;DHT22;49973;52.084;5.412;2022-12-01T15:45:28;5.30;99.90
61912;DHT22;49973;52.084;5.412;2022-12-01T15:47:57;5.20;99.90
61912;DHT22;49973;52.084;5.412;2022-12-01T15:50:27;5.20;99.90
61912;DHT22;49973;52.084;5.412;2022-12-01T15:53:01;5.10;99.90
61912;DHT22;49973;52.084;5.412;2022-12-01T15:55:32;5.10;99.90
61912;DHT22;49973;52.084;5.412;2022-12-01T15:58:05;4.90;99.90
61912;DHT22;49973;52.084;5.412;2022-12-01T16:00:34;4.80;99.90
61912;DHT22;49973;52.084;5.412;2022-12-01T16:03:03;4.70;99.90
61912;DHT22;49973;52.084;5.412;2022-12-01T16:05:34;4.60;99.90
61912;DHT22;49973;52.084;5.412;2022-12-01T16:08:14;4.50;99.90
61912;DHT22;49973;52.084;5.412;2022-12-01T16:10:43;4.50;99.90
61912;DHT22;49973;52.084;5.412;2022-12-01T16:13:34;4.40;99.90
61912;DHT22;49973;52.084;5.412;2022-12-01T16:16:29;4.30;99.90
61912;DHT22;49973;52.084;5.412;2022-12-01T16:18:59;4.20;99.90
61912;DHT22;49973;52.084;5.412;2022-12-01T16:21:31;4.20;99.90
61912;DHT22;49973;52.084;5.412;2022-12-01T16:24:04;4.10;99.90
61912;DHT22;49973;52.084;5.412;2022-12-01T16:26:32;4.10;99.90
61912;DHT22;49973;52.084;5.412;2022-12-01T16:29:01;4.10;99.90
61912;DHT22;49973;52.084;5.412;2022-12-01T16:31:31;4.00;99.90
61912;DHT22;49973;52.084;5.412;2022-12-01T16:34:01;4.00;99.90
61912;DHT22;49973;52.084;5.412;2022-12-01T16:36:45;4.00;99.90